Time;durP1;ratioP1;P1;durP2;ratioP2;P2;SDS_P1;SDS_P2;PMS_P1;PMS_P2;Temp;Humidity;BMP_temperature;BMP_pressure;BME280_temperature;BME280_humidity;BME280_pressure;Samples;Min_cycle;Max_cycle;Signal;HPM_P1;HPM_P2
2022/12/03 00:00:14;;;;;;;43.95;18.23;;;4.10;99.90;;;;;;4997562;28;20196;-82
2022/12/03 00:02:40;;;;;;;26.67;14.43;;;4.10;99.90;;;;;;4997397;28;20181;-84
2022/12/03 00:05:06;;;;;;;30.98;16.90;;;4.10;99.90;;;;;;4977676;28;20157;-80
2022/12/03 00:07:31;;;;;;;27.63;16.50;;;4.20;99.90;;;;;;4994811;28;20522;-86
2022/12/03 00:09:57;;;;;;;25.77;15.82;;;4.20;99.90;;;;;;4977104;28;20192;-82
2022/12/03 00:12:22;;;;;;;32.50;16.98;;;4.10;99.90;;;;;;4994410;28;20169;-81
2022/12/03 00:14:48;;;;;;;25.38;15.63;;;4.00;99.90;;;;;;4994165;28;20169;-84
2022/12/03 00:17:13;;;;;;;26.27;15.80;;;4.10;99.90;;;;;;4994539;28;20201;-83
2022/12/03 00:19:39;;;;;;;28.52;16.30;;;4.00;99.90;;;;;;4994285;28;20169;-80
2022/12/03 00:22:05;;;;;;;26.55;15.10;;;4.00;99.90;;;;;;4976729;28;20296;-82
2022/12/03 00:24:30;;;;;;;25.35;15.63;;;3.90;99.90;;;;;;4993896;28;20166;-80
2022/12/03 00:26:56;;;;;;;28.27;16.42;;;3.70;99.90;;;;;;4993897;28;20253;-81
2022/12/03 00:29:21;;;;;;;30.60;17.35;;;3.80;99.90;;;;;;4994166;28;20153;-81
2022/12/03 00:31:47;;;;;;;28.90;15.10;;;3.80;99.90;;;;;;4994055;28;20580;-81
2022/12/03 00:34:12;;;;;;;26.23;15.27;;;3.90;99.90;;;;;;4976795;28;20188;-79
2022/12/03 00:36:38;;;;;;;27.48;16.52;;;4.00;99.90;;;;;;4993977;28;20169;-83
2022/12/03 00:39:04;;;;;;;25.02;15.07;;;4.00;99.90;;;;;;4994059;28;20205;-86
2022/12/03 00:41:29;;;;;;;22.02;15.05;;;4.00;99.90;;;;;;4976573;28;20220;-81
2022/12/03 00:43:56;;;;;;;34.83;16.85;;;4.00;99.90;;;;;;4993674;28;20165;-81
2022/12/03 00:46:23;;;;;;;31.30;16.35;;;4.10;99.90;;;;;;4993880;28;20531;-82
2022/12/03 00:48:49;;;;;;;24.73;15.73;;;4.10;99.90;;;;;;4993834;28;20249;-87
2022/12/03 00:51:14;;;;;;;26.98;16.30;;;3.90;99.90;;;;;;4993564;28;20227;-85
2022/12/03 00:53:40;;;;;;;29.75;16.30;;;3.80;99.90;;;;;;4993962;28;20169;-84
2022/12/03 00:56:06;;;;;;;29.38;15.82;;;3.80;99.90;;;;;;4976364;28;20223;-84
2022/12/03 00:58:32;;;;;;;27.10;15.52;;;3.80;99.90;;;;;;4993644;28;20239;-83
2022/12/03 01:00:57;;;;;;;27.23;15.18;;;3.70;99.90;;;;;;4993560;28;20224;-80
2022/12/03 01:03:23;;;;;;;31.83;16.85;;;3.70;99.90;;;;;;4993799;28;20161;-80
2022/12/03 01:05:48;;;;;;;29.15;16.48;;;3.80;99.90;;;;;;4993596;28;20180;-80
2022/12/03 01:08:14;;;;;;;26.95;15.55;;;3.90;99.90;;;;;;4993618;28;20546;-81
2022/12/03 01:10:39;;;;;;;25.45;15.15;;;3.80;99.90;;;;;;4993342;28;20228;-83
2022/12/03 01:13:05;;;;;;;27.65;16.52;;;3.70;99.90;;;;;;4993446;28;20203;-84
2022/12/03 01:15:30;;;;;;;31.75;15.75;;;3.60;99.90;;;;;;4976248;28;20181;-83
2022/12/03 01:17:56;;;;;;;27.98;16.13;;;3.60;99.90;;;;;;4993626;28;20545;-84
2022/12/03 01:20:22;;;;;;;25.55;14.52;;;3.70;99.90;;;;;;4993115;28;20259;-81
2022/12/03 01:22:47;;;;;;;30.80;16.40;;;3.80;99.90;;;;;;4993315;28;20169;-83
2022/12/03 01:25:13;;;;;;;25.27;16.58;;;3.80;99.90;;;;;;4975817;28;20631;-79
2022/12/03 01:27:38;;;;;;;29.33;15.90;;;3.80;99.90;;;;;;4996982;28;20519;-79
2022/12/03 01:30:05;;;;;;;24.15;15.30;;;3.70;99.90;;;;;;4997225;28;20185;-81
2022/12/03 01:32:30;;;;;;;31.55;15.80;;;3.70;99.90;;;;;;4997625;28;20177;-81
2022/12/03 01:34:56;;;;;;;27.52;15.88;;;3.80;99.90;;;;;;4997351;28;20181;-79
2022/12/03 01:37:24;;;;;;;28.30;16.67;;;3.70;99.90;;;;;;4997406;28;20200;-83
2022/12/03 01:39:50;;;;;;;24.00;14.85;;;3.80;99.90;;;;;;4997459;28;20196;-86
2022/12/03 01:42:19;;;;;;;27.58;14.85;;;4.10;99.90;;;;;;4996807;28;20209;-84
2022/12/03 01:44:45;;;;;;;26.83;15.80;;;4.00;99.90;;;;;;4997169;28;20180;-87
2022/12/03 01:47:15;;;;;;;25.90;15.50;;;4.00;99.90;;;;;;4979871;28;20626;-83
2022/12/03 01:49:54;;;;;;;32.75;17.05;;;3.90;99.90;;;;;;4979767;28;20231;-81
2022/12/03 01:52:25;;;;;;;26.27;14.45;;;3.90;99.90;;;;;;4979565;28;20177;-79
2022/12/03 01:54:57;;;;;;;26.90;16.05;;;3.90;99.90;;;;;;4979772;28;20195;-84
2022/12/03 01:57:27;;;;;;;26.75;15.13;;;3.80;99.90;;;;;;4996611;28;20169;-86
2022/12/03 01:59:54;;;;;;;25.20;16.02;;;3.70;99.90;;;;;;4996712;28;20200;-80
2022/12/03 02:02:28;;;;;;;30.70;15.73;;;3.70;99.90;;;;;;4998657;28;20216;-79
2022/12/03 02:04:55;;;;;;;35.63;18.23;;;3.70;99.90;;;;;;5006147;28;20180;-79
2022/12/03 02:07:30;;;;;;;29.33;16.23;;;3.70;99.90;;;;;;5016788;28;20193;-78
2022/12/03 02:09:58;;;;;;;28.75;15.90;;;3.70;99.90;;;;;;5007210;28;20207;-79
2022/12/03 02:12:32;;;;;;;28.17;16.02;;;3.60;99.90;;;;;;4979456;28;20165;-81
2022/12/03 02:14:58;;;;;;;28.95;15.70;;;3.80;99.90;;;;;;4989242;28;20648;-79
2022/12/03 02:17:25;;;;;;;33.58;17.42;;;3.70;99.90;;;;;;5016497;28;20165;-79
2022/12/03 02:19:51;;;;;;;28.83;16.23;;;3.80;99.90;;;;;;4998515;28;20670;-84
2022/12/03 02:22:42;;;;;;;29.15;16.48;;;3.80;99.90;;;;;;5015990;28;20295;-79
2022/12/03 02:25:11;;;;;;;30.40;16.17;;;3.90;99.90;;;;;;5015496;28;20185;-81
2022/12/03 02:27:37;;;;;;;27.50;15.85;;;3.90;99.90;;;;;;5016223;28;20173;-81
2022/12/03 02:30:04;;;;;;;25.52;16.10;;;3.90;99.90;;;;;;5015862;28;20207;-80
2022/12/03 02:32:30;;;;;;;26.00;15.00;;;3.90;99.90;;;;;;4998408;28;20633;-86
2022/12/03 02:34:55;;;;;;;29.50;17.38;;;3.80;99.90;;;;;;5015523;28;20255;-80
2022/12/03 02:37:34;;;;;;;27.58;16.13;;;3.80;99.90;;;;;;4998029;28;20194;-82
2022/12/03 02:40:31;;;;;;;25.77;15.82;;;3.80;99.90;;;;;;5131209;27;20934;-80
2022/12/03 02:43:00;;;;;;;31.42;16.35;;;3.80;99.90;;;;;;5110552;28;20192;-83
2022/12/03 02:45:29;;;;;;;28.92;16.85;;;3.90;99.90;;;;;;5109393;28;20248;-82
2022/12/03 02:47:57;;;;;;;25.42;15.98;;;3.90;99.90;;;;;;5109281;28;20173;-83
2022/12/03 02:50:27;;;;;;;35.63;15.80;;;4.00;99.90;;;;;;5110650;28;20189;-81
2022/12/03 02:52:55;;;;;;;28.95;16.27;;;3.90;99.90;;;;;;5111076;28;20577;-83
2022/12/03 02:55:21;;;;;;;30.35;16.77;;;3.90;99.90;;;;;;5109230;28;20249;-80
2022/12/03 02:57:48;;;;;;;29.42;16.35;;;3.80;99.90;;;;;;5111515;28;20248;-83
2022/12/03 03:00:15;;;;;;;29.48;16.48;;;3.80;99.90;;;;;;5110364;28;20199;-81
2022/12/03 03:02:41;;;;;;;31.88;16.83;;;3.90;99.90;;;;;;5110517;28;20162;-84
2022/12/03 03:05:10;;;;;;;29.02;16.27;;;3.90;99.90;;;;;;5109844;28;20218;-80
2022/12/03 03:07:36;;;;;;;29.15;16.80;;;3.80;99.90;;;;;;5110689;28;20168;-86
2022/12/03 03:10:03;;;;;;;29.55;16.27;;;3.70;99.90;;;;;;5110081;28;20187;-82
2022/12/03 03:12:29;;;;;;;30.27;15.93;;;3.60;99.90;;;;;;5110157;28;20185;-83
2022/12/03 03:14:56;;;;;;;30.20;16.63;;;3.60;99.90;;;;;;5109916;28;20164;-82
2022/12/03 03:17:21;;;;;;;27.10;16.25;;;3.60;99.90;;;;;;5110190;28;20169;-86
2022/12/03 03:19:47;;;;;;;35.20;16.13;;;3.60;99.90;;;;;;5110206;28;20569;-84
2022/12/03 03:22:13;;;;;;;31.27;17.88;;;3.60;99.90;;;;;;5108682;28;20257;-82
2022/12/03 03:24:38;;;;;;;26.35;16.52;;;3.60;99.90;;;;;;5109946;28;20176;-81
2022/12/03 03:27:04;;;;;;;28.00;15.50;;;3.70;99.90;;;;;;5110037;28;20170;-82
2022/12/03 03:29:32;;;;;;;32.95;16.17;;;3.90;99.90;;;;;;5109735;28;20161;-80
2022/12/03 03:31:58;;;;;;;32.33;16.55;;;3.90;99.90;;;;;;5109913;28;20169;-79
2022/12/03 03:34:24;;;;;;;33.25;16.77;;;3.90;99.90;;;;;;5109729;28;20162;-83
2022/12/03 03:36:49;;;;;;;29.33;17.23;;;3.90;99.90;;;;;;5110170;28;20181;-80
2022/12/03 03:39:15;;;;;;;28.52;15.75;;;4.00;99.90;;;;;;5109206;28;20697;-79
2022/12/03 03:41:44;;;;;;;30.30;15.98;;;4.00;99.90;;;;;;5109530;28;20697;-86
2022/12/03 03:44:10;;;;;;;32.35;16.95;;;4.10;99.90;;;;;;5109595;28;20164;-79
2022/12/03 03:46:36;;;;;;;30.17;16.63;;;4.10;99.90;;;;;;5109737;28;20162;-79
2022/12/03 03:49:04;;;;;;;30.17;15.77;;;4.30;99.90;;;;;;5108278;28;20661;-89
2022/12/03 03:51:30;;;;;;;34.05;16.10;;;4.20;99.90;;;;;;5096690;28;20185;-85
2022/12/03 03:53:56;;;;;;;27.67;16.48;;;4.10;99.90;;;;;;5095812;28;20502;-84
2022/12/03 03:56:21;;;;;;;30.83;16.27;;;4.10;99.90;;;;;;5095481;28;20162;-79
2022/12/03 03:58:47;;;;;;;27.13;16.35;;;4.20;99.90;;;;;;5095091;28;20213;-79
2022/12/03 04:01:14;;;;;;;29.65;16.30;;;4.10;99.90;;;;;;5095106;28;20182;-79
2022/12/03 04:03:39;;;;;;;24.73;15.57;;;4.20;99.90;;;;;;5093959;28;20227;-81
2022/12/03 04:06:05;;;;;;;25.02;15.13;;;4.20;99.90;;;;;;5094969;28;20162;-79
2022/12/03 04:08:31;;;;;;;32.75;17.27;;;4.30;99.90;;;;;;5094978;28;20165;-79
2022/12/03 04:13:41;;;;;;;29.98;15.45;;;4.20;99.90;;;;;;5095816;28;20188;-82
2022/12/03 04:16:06;;;;;;;32.00;16.35;;;4.10;99.90;;;;;;5095526;28;20626;-79
2022/12/03 04:18:41;;;;;;;28.13;16.27;;;3.90;99.90;;;;;;5094238;28;20280;-80
2022/12/03 04:23:52;;;;;;;27.27;15.50;;;4.10;99.90;;;;;;5095800;28;20531;-84
2022/12/03 04:29:01;;;;;;;26.67;14.88;;;4.00;99.90;;;;;;5095608;28;20177;-78
2022/12/03 04:36:56;;;;;;;29.80;14.88;;;3.90;99.90;;;;;;5108336;28;20168;-78
2022/12/03 04:39:21;;;;;;;28.75;16.77;;;3.80;99.90;;;;;;5115876;28;20194;-80
2022/12/03 04:41:47;;;;;;;30.02;16.70;;;3.80;99.90;;;;;;5096968;28;20193;-81
2022/12/03 04:44:58;;;;;;;26.58;15.48;;;3.90;99.90;;;;;;5095119;28;20238;-83
2022/12/03 04:47:00;;;;;;;24.63;14.43;;;3.80;99.90;;;;;;5083998;28;20527;-80
2022/12/03 04:49:25;;;;;;;26.67;15.25;;;3.70;99.90;;;;;;5094581;28;20219;-79
2022/12/03 04:51:51;;;;;;;27.35;14.45;;;3.80;99.90;;;;;;5094841;28;20593;-84
2022/12/03 04:54:16;;;;;;;30.83;16.50;;;3.80;99.90;;;;;;5093545;28;20161;-78
2022/12/03 04:56:42;;;;;;;23.88;14.65;;;3.80;99.90;;;;;;5094675;28;20201;-79
2022/12/03 04:59:07;;;;;;;31.27;15.75;;;3.80;99.90;;;;;;5093428;28;20231;-78
2022/12/03 05:01:33;;;;;;;30.15;16.45;;;3.80;99.90;;;;;;5093458;28;20186;-78
2022/12/03 05:03:59;;;;;;;31.15;15.60;;;3.70;99.90;;;;;;5094101;28;20732;-79
2022/12/03 05:06:24;;;;;;;28.00;15.50;;;3.80;99.90;;;;;;5094755;28;20222;-78
2022/12/03 05:08:50;;;;;;;23.02;14.95;;;3.70;99.90;;;;;;5094397;28;20204;-79
2022/12/03 05:11:15;;;;;;;31.42;15.27;;;3.70;99.90;;;;;;5094260;28;20182;-78
2022/12/03 05:13:41;;;;;;;25.88;14.65;;;3.60;99.90;;;;;;5093074;28;20193;-78
2022/12/03 05:16:07;;;;;;;26.30;15.45;;;3.60;99.90;;;;;;5094221;28;20169;-80
2022/12/03 05:18:32;;;;;;;29.88;16.08;;;3.70;99.90;;;;;;5100279;28;20201;-79
2022/12/03 05:20:58;;;;;;;32.53;17.00;;;3.60;99.90;;;;;;5097057;28;20189;-80
2022/12/03 05:23:24;;;;;;;27.90;15.75;;;3.70;99.90;;;;;;5098437;28;20174;-80
2022/12/03 05:25:49;;;;;;;24.40;15.10;;;3.80;99.90;;;;;;5100465;28;20174;-84
2022/12/03 05:28:15;;;;;;;29.58;15.73;;;3.90;99.90;;;;;;5104380;28;20170;-84
2022/12/03 05:30:40;;;;;;;26.35;15.27;;;3.80;99.90;;;;;;5101578;28;20193;-87
2022/12/03 05:33:06;;;;;;;27.20;15.90;;;3.70;99.90;;;;;;5100553;28;20170;-78
2022/12/03 05:35:32;;;;;;;33.45;16.73;;;3.70;99.90;;;;;;5098464;28;20169;-79
2022/12/03 05:37:57;;;;;;;36.58;17.77;;;3.70;99.90;;;;;;5097312;28;20185;-79
2022/12/03 05:40:23;;;;;;;26.40;14.38;;;3.80;99.90;;;;;;5096241;28;20537;-80
2022/12/03 05:43:00;;;;;;;33.15;16.90;;;3.70;99.90;;;;;;5097533;28;20219;-78
2022/12/03 05:45:37;;;;;;;27.92;15.82;;;3.70;99.90;;;;;;5102890;28;20672;-80
2022/12/03 05:48:05;;;;;;;31.83;16.33;;;3.80;99.90;;;;;;5101088;28;20181;-78
2022/12/03 05:50:35;;;;;;;31.27;16.52;;;3.60;99.90;;;;;;5097348;28;20214;-82
2022/12/03 05:53:00;;;;;;;31.25;17.13;;;3.60;99.90;;;;;;5096716;28;20185;-82
2022/12/03 05:55:27;;;;;;;29.65;15.85;;;3.50;99.90;;;;;;5098153;28;20181;-83
2022/12/03 05:57:53;;;;;;;28.00;16.88;;;3.60;99.90;;;;;;5102534;28;20169;-79
2022/12/03 06:00:21;;;;;;;37.92;18.63;;;3.60;99.90;;;;;;5096486;28;20209;-80
2022/12/03 06:02:47;;;;;;;30.73;16.67;;;3.60;99.90;;;;;;5100441;28;20166;-78
2022/12/03 06:05:18;;;;;;;38.75;16.40;;;3.50;99.90;;;;;;5100299;28;20229;-78
2022/12/03 06:07:44;;;;;;;29.20;16.45;;;3.40;99.90;;;;;;5101572;28;20162;-81
2022/12/03 06:10:12;;;;;;;40.08;17.90;;;3.60;99.90;;;;;;5093588;28;20673;-79
2022/12/03 06:12:38;;;;;;;30.80;16.05;;;3.70;99.90;;;;;;5098558;28;20177;-85
2022/12/03 06:15:04;;;;;;;25.75;14.98;;;3.70;99.90;;;;;;5096505;28;20225;-80
2022/12/03 06:17:29;;;;;;;32.92;17.48;;;3.70;99.90;;;;;;5099313;28;20634;-79
2022/12/03 06:19:55;;;;;;;26.83;16.55;;;3.70;99.90;;;;;;5096489;28;20263;-85
2022/12/03 06:22:21;;;;;;;34.28;18.20;;;3.60;99.90;;;;;;5094377;28;20165;-79
2022/12/03 06:24:46;;;;;;;33.95;16.15;;;3.70;99.90;;;;;;5101246;28;20166;-79
2022/12/03 06:27:12;;;;;;;21.73;12.68;;;3.80;99.90;;;;;;5101377;28;20169;-79
2022/12/03 06:29:38;;;;;;;39.25;16.48;;;3.70;99.90;;;;;;5096598;28;20651;-80
2022/12/03 06:32:04;;;;;;;31.27;16.92;;;3.80;99.90;;;;;;5095601;28;20499;-86
2022/12/03 06:34:30;;;;;;;26.73;16.02;;;3.90;99.90;;;;;;5096101;28;20158;-84
2022/12/03 06:36:56;;;;;;;31.92;17.73;;;3.80;99.90;;;;;;5097137;28;20173;-83
2022/12/03 06:39:21;;;;;;;30.45;17.40;;;4.00;99.90;;;;;;5095777;28;20213;-84
2022/12/03 06:41:47;;;;;;;33.00;17.75;;;4.20;99.90;;;;;;5094972;28;20189;-83
2022/12/03 06:44:13;;;;;;;31.40;16.92;;;4.20;99.90;;;;;;5097205;28;20168;-85
2022/12/03 06:46:40;;;;;;;31.95;17.13;;;4.40;99.90;;;;;;5094693;28;20166;-81
2022/12/03 06:49:08;;;;;;;39.47;15.73;;;4.30;99.90;;;;;;5093981;28;20182;-81
2022/12/03 06:51:34;;;;;;;30.52;15.93;;;4.30;99.90;;;;;;5095343;28;20248;-85
2022/12/03 06:54:00;;;;;;;37.25;18.02;;;4.40;99.90;;;;;;5094719;28;20174;-80
2022/12/03 06:56:25;;;;;;;21.30;13.07;;;4.20;99.90;;;;;;5078900;28;20177;-82
2022/12/03 06:58:51;;;;;;;32.05;17.23;;;4.00;99.90;;;;;;5096721;28;20665;-80
2022/12/03 07:01:17;;;;;;;36.13;18.08;;;3.80;99.90;;;;;;5096961;28;20194;-80
2022/12/03 07:03:42;;;;;;;39.05;17.10;;;4.00;99.90;;;;;;5093776;28;20166;-83
2022/12/03 07:06:08;;;;;;;33.33;18.10;;;3.90;99.90;;;;;;5096126;28;20166;-78
2022/12/03 07:08:34;;;;;;;31.08;17.55;;;3.90;99.90;;;;;;5095909;28;20221;-79
2022/12/03 07:11:00;;;;;;;32.33;16.95;;;3.80;99.90;;;;;;5093481;28;20606;-84
2022/12/03 07:13:25;;;;;;;33.92;17.67;;;3.70;99.90;;;;;;5092456;28;20519;-79
2022/12/03 07:15:51;;;;;;;31.58;17.88;;;3.80;99.90;;;;;;5093850;28;20185;-80
2022/12/03 07:18:16;;;;;;;35.25;16.92;;;3.90;99.90;;;;;;5102929;28;20201;-79
2022/12/03 07:20:42;;;;;;;33.47;17.27;;;3.80;99.90;;;;;;5110585;28;20729;-78
2022/12/03 07:23:07;;;;;;;29.60;17.30;;;3.90;99.90;;;;;;5099276;28;20170;-82
2022/12/03 07:25:33;;;;;;;32.13;16.77;;;3.80;99.90;;;;;;5094219;28;20161;-79
2022/12/03 07:27:59;;;;;;;33.05;18.13;;;3.90;99.90;;;;;;5095059;28;20176;-79
2022/12/03 07:30:26;;;;;;;34.85;18.23;;;4.00;99.90;;;;;;5096109;28;20242;-83
2022/12/03 07:32:52;;;;;;;34.58;16.85;;;3.90;99.90;;;;;;5096331;28;20193;-80
2022/12/03 07:35:18;;;;;;;31.65;16.73;;;4.00;99.90;;;;;;5095875;28;20177;-84
2022/12/03 07:37:43;;;;;;;39.80;17.48;;;3.90;99.90;;;;;;5096100;28;20162;-82
2022/12/03 07:40:10;;;;;;;36.22;18.10;;;3.90;99.90;;;;;;5095751;28;20210;-80
2022/12/03 07:42:36;;;;;;;30.60;17.63;;;4.00;99.90;;;;;;5094428;28;20656;-79
2022/12/03 07:45:02;;;;;;;31.75;17.08;;;4.10;99.90;;;;;;5095946;28;20178;-80
2022/12/03 07:47:27;;;;;;;34.28;17.83;;;4.10;99.90;;;;;;5094306;28;20522;-80
2022/12/03 07:49:53;;;;;;;34.92;17.52;;;4.20;99.90;;;;;;5095281;28;20185;-80
2022/12/03 07:52:18;;;;;;;30.90;17.35;;;4.30;99.90;;;;;;5095010;28;20250;-83
2022/12/03 07:54:44;;;;;;;33.22;17.13;;;4.20;99.90;;;;;;5094200;28;20173;-80
2022/12/03 07:57:09;;;;;;;38.30;18.05;;;4.20;99.90;;;;;;5093964;28;20162;-82
2022/12/03 07:59:35;;;;;;;30.17;17.42;;;4.30;99.90;;;;;;5095016;28;20567;-84
2022/12/03 08:02:01;;;;;;;33.60;16.55;;;4.10;99.90;;;;;;5095003;28;20570;-80
2022/12/03 08:04:27;;;;;;;39.35;18.90;;;4.10;99.90;;;;;;5093730;28;20566;-86
2022/12/03 08:06:53;;;;;;;30.23;16.85;;;4.00;99.90;;;;;;5095353;28;20162;-80
2022/12/03 08:09:18;;;;;;;41.08;18.92;;;4.20;99.90;;;;;;5095703;28;20178;-81
2022/12/03 08:11:47;;;;;;;38.45;19.23;;;4.40;99.90;;;;;;5094262;28;20526;-84
2022/12/03 08:14:17;;;;;;;31.60;17.50;;;4.40;99.90;;;;;;5094955;28;20170;-81
2022/12/03 08:16:44;;;;;;;35.80;18.77;;;4.40;99.90;;;;;;5093595;28;20162;-80
2022/12/03 08:19:14;;;;;;;34.20;18.05;;;4.20;99.90;;;;;;5095269;28;20212;-85
2022/12/03 08:21:40;;;;;;;35.92;18.50;;;3.90;99.90;;;;;;5095820;28;20242;-81
2022/12/03 08:24:15;;;;;;;32.20;17.77;;;3.80;99.90;;;;;;5097579;28;20249;-84
2022/12/03 08:26:45;;;;;;;35.83;18.58;;;3.90;99.90;;;;;;5094860;28;20218;-83
2022/12/03 08:29:15;;;;;;;35.92;17.40;;;4.00;99.90;;;;;;5094299;28;20174;-81
2022/12/03 08:31:46;;;;;;;35.40;18.88;;;4.00;99.90;;;;;;5093411;28;20189;-83
2022/12/03 08:34:14;;;;;;;39.08;19.30;;;3.90;99.90;;;;;;5094442;28;20162;-81
2022/12/03 08:36:40;;;;;;;38.38;20.50;;;4.10;99.90;;;;;;5093852;28;20219;-80
2022/12/03 08:39:26;;;;;;;32.83;18.15;;;4.10;99.90;;;;;;5092866;28;20241;-80
2022/12/03 08:44:40;;;;;;;41.97;19.55;;;3.90;99.90;;;;;;5074652;28;20182;-81
2022/12/03 08:47:15;;;;;;;46.35;18.00;;;4.00;99.90;;;;;;5075018;28;20167;-84
2022/12/03 08:49:43;;;;;;;38.97;18.52;;;4.00;99.90;;;;;;5074432;28;20175;-82
2022/12/03 08:52:15;;;;;;;38.35;20.50;;;3.90;99.90;;;;;;5074504;28;20170;-81
2022/12/03 08:54:42;;;;;;;33.53;18.10;;;3.90;99.90;;;;;;5073755;28;20181;-82
2022/12/03 08:57:25;;;;;;;38.13;18.60;;;3.80;99.90;;;;;;5073244;28;20169;-84
2022/12/03 08:59:56;;;;;;;36.13;19.35;;;3.80;99.90;;;;;;5074281;28;20217;-81
2022/12/03 09:02:30;;;;;;;40.17;17.70;;;3.90;99.90;;;;;;5074267;28;20165;-82
2022/12/03 09:04:56;;;;;;;44.63;19.73;;;4.00;99.90;;;;;;5074908;28;20524;-83
2022/12/03 09:07:22;;;;;;;38.55;20.42;;;4.00;99.90;;;;;;5074130;28;20222;-85
2022/12/03 09:09:47;;;;;;;35.67;19.00;;;4.00;99.90;;;;;;5074102;28;20553;-87
2022/12/03 09:12:13;;;;;;;39.25;19.33;;;4.10;99.90;;;;;;5074712;28;20571;-81
2022/12/03 09:14:38;;;;;;;39.38;18.92;;;4.20;99.90;;;;;;5072769;28;20175;-83
2022/12/03 09:17:04;;;;;;;37.78;19.00;;;4.30;99.90;;;;;;5074451;28;20185;-85
2022/12/03 09:19:29;;;;;;;36.35;18.83;;;4.20;99.90;;;;;;5073843;28;20222;-81
2022/12/03 09:21:56;;;;;;;47.67;20.45;;;4.30;99.90;;;;;;5076070;28;20158;-82
2022/12/03 09:24:22;;;;;;;37.65;19.63;;;4.30;99.90;;;;;;5094466;28;20256;-83
2022/12/03 09:26:48;;;;;;;33.70;17.48;;;4.40;99.90;;;;;;5092816;28;20208;-80
2022/12/03 09:29:13;;;;;;;35.45;19.73;;;4.30;99.90;;;;;;5094204;28;20558;-81
2022/12/03 09:31:39;;;;;;;43.83;21.05;;;4.30;99.90;;;;;;5093648;28;20198;-83
2022/12/03 09:34:06;;;;;;;30.60;17.73;;;4.40;99.90;;;;;;5091894;28;20169;-80
2022/12/03 09:36:32;;;;;;;33.38;17.73;;;4.20;99.90;;;;;;5094317;28;20166;-81
2022/12/03 09:38:57;;;;;;;36.38;19.23;;;4.30;99.90;;;;;;5093667;28;20215;-80
2022/12/03 09:41:24;;;;;;;36.35;19.55;;;4.50;99.90;;;;;;5092898;28;20196;-80
2022/12/03 09:43:51;;;;;;;36.75;19.33;;;4.40;99.90;;;;;;5092551;28;20162;-79
2022/12/03 09:46:17;;;;;;;36.78;19.50;;;4.40;99.90;;;;;;5094006;28;20228;-80
2022/12/03 09:48:42;;;;;;;40.45;18.90;;;4.40;99.90;;;;;;5092657;28;20227;-81
2022/12/03 09:51:09;;;;;;;33.70;19.25;;;4.50;99.90;;;;;;5092818;28;20646;-82
2022/12/03 09:53:35;;;;;;;29.60;18.35;;;4.40;99.90;;;;;;5096886;28;20172;-80
2022/12/03 09:56:01;;;;;;;38.20;20.27;;;4.40;99.90;;;;;;5096559;28;20218;-80
2022/12/03 09:58:28;;;;;;;45.72;20.27;;;4.50;99.90;;;;;;5090770;28;20214;-82
2022/12/03 10:00:54;;;;;;;37.50;19.38;;;4.30;99.90;;;;;;5093522;28;20190;-81
2022/12/03 10:03:22;;;;;;;37.88;18.13;;;4.40;99.90;;;;;;5093619;28;20177;-85
2022/12/03 10:05:49;;;;;;;31.67;18.48;;;4.60;99.90;;;;;;5093141;28;20157;-81
2022/12/03 10:08:19;;;;;;;40.65;20.23;;;4.60;99.90;;;;;;5092499;28;20243;-82
2022/12/03 10:10:47;;;;;;;33.47;19.20;;;4.60;99.90;;;;;;5093365;28;20185;-80
2022/12/03 10:13:22;;;;;;;33.72;19.23;;;4.60;99.90;;;;;;5092071;28;20541;-81
2022/12/03 10:15:48;;;;;;;31.20;16.65;;;4.60;99.90;;;;;;5093260;28;20240;-81
2022/12/03 10:18:26;;;;;;;36.78;19.30;;;4.60;99.90;;;;;;5093326;28;20190;-80
2022/12/03 10:20:52;;;;;;;36.85;20.30;;;4.60;99.90;;;;;;5092842;28;20525;-79
2022/12/03 10:23:26;;;;;;;35.35;18.60;;;4.40;99.90;;;;;;5092074;28;20165;-80
2022/12/03 10:25:53;;;;;;;39.40;18.35;;;4.40;99.90;;;;;;5091199;28;20161;-79
2022/12/03 10:28:35;;;;;;;34.40;18.38;;;4.30;99.90;;;;;;5091051;28;20231;-80
2022/12/03 10:31:04;;;;;;;36.17;17.52;;;4.40;99.90;;;;;;5092705;28;20186;-79
2022/12/03 10:33:38;;;;;;;35.85;17.55;;;4.40;99.90;;;;;;5092861;28;20165;-80
2022/12/03 10:36:16;;;;;;;34.65;18.85;;;4.50;99.90;;;;;;5092941;28;20165;-80
2022/12/03 10:38:42;;;;;;;34.10;18.83;;;4.70;99.90;;;;;;5092540;28;20201;-79
2022/12/03 10:41:41;;;;;;;37.10;19.92;;;4.80;99.90;;;;;;5093424;28;20326;-80
2022/12/03 10:44:16;;;;;;;37.58;18.50;;;4.90;99.90;;;;;;5048027;28;20281;-80
2022/12/03 10:46:42;;;;;;;41.30;19.20;;;5.00;99.90;;;;;;5092728;28;20165;-79
2022/12/03 10:49:10;;;;;;;39.05;20.58;;;5.00;99.90;;;;;;5092356;28;20218;-79
2022/12/03 10:51:37;;;;;;;38.90;19.02;;;5.10;99.90;;;;;;5092438;28;20561;-79
2022/12/03 10:54:04;;;;;;;36.60;19.25;;;4.90;99.90;;;;;;5091248;28;20162;-79
2022/12/03 10:56:29;;;;;;;38.80;20.42;;;4.90;99.90;;;;;;5092993;28;20169;-80
2022/12/03 10:58:55;;;;;;;43.05;19.08;;;4.90;99.90;;;;;;5092433;28;20696;-79
2022/12/03 11:01:23;;;;;;;34.17;19.25;;;4.80;99.90;;;;;;5095250;28;20189;-79
2022/12/03 11:03:49;;;;;;;35.08;18.60;;;4.90;99.90;;;;;;5095373;28;20162;-79
2022/12/03 11:06:20;;;;;;;42.90;19.88;;;5.00;99.90;;;;;;5097096;28;20174;-79
2022/12/03 11:08:52;;;;;;;29.20;17.08;;;5.10;99.90;;;;;;5096776;28;20166;-80
2022/12/03 11:11:27;;;;;;;34.53;18.00;;;5.00;99.90;;;;;;5096377;28;20216;-80
2022/12/03 11:13:58;;;;;;;36.70;19.50;;;5.00;99.90;;;;;;5096528;28;20165;-79
2022/12/03 11:16:39;;;;;;;35.72;17.77;;;5.00;99.90;;;;;;5096361;28;20169;-81
2022/12/03 11:19:16;;;;;;;39.45;18.65;;;4.80;99.90;;;;;;5095016;28;20700;-80
2022/12/03 11:22:08;;;;;;;35.05;19.75;;;4.90;99.90;;;;;;5095871;28;20192;-79
2022/12/03 11:24:36;;;;;;;40.92;19.60;;;4.90;99.90;;;;;;5090859;28;20186;-80
2022/12/03 11:27:02;;;;;;;36.42;18.40;;;4.90;99.90;;;;;;5096261;28;20291;-81
2022/12/03 11:29:46;;;;;;;37.38;20.13;;;4.70;99.90;;;;;;5095983;28;20191;-79
2022/12/03 11:32:37;;;;;;;23.65;13.45;;;4.60;99.90;;;;;;5095960;28;20723;-79
2022/12/03 11:35:14;;;;;;;29.85;17.33;;;4.70;99.90;;;;;;5094546;28;20717;-80
2022/12/03 11:37:40;;;;;;;39.03;19.33;;;4.70;99.90;;;;;;5101116;28;20177;-80
2022/12/03 11:40:15;;;;;;;41.78;19.70;;;4.60;99.90;;;;;;5094789;28;20221;-79
2022/12/03 11:42:40;;;;;;;34.97;19.38;;;4.60;99.90;;;;;;5099469;28;20202;-81
2022/12/03 11:45:09;;;;;;;36.05;18.33;;;4.50;99.90;;;;;;5101092;28;20193;-81
2022/12/03 11:47:44;;;;;;;35.40;18.25;;;4.70;99.90;;;;;;5101292;28;20189;-82
2022/12/03 11:50:22;;;;;;;32.65;18.27;;;4.90;99.90;;;;;;5094221;28;20262;-81
2022/12/03 11:52:58;;;;;;;37.50;19.13;;;5.10;99.90;;;;;;5094549;28;20209;-80
2022/12/03 11:55:36;;;;;;;34.60;17.58;;;5.10;99.90;;;;;;5096874;28;20280;-79
2022/12/03 11:58:24;;;;;;;28.83;17.38;;;5.00;99.90;;;;;;5101213;28;20157;-80
2022/12/03 12:00:55;;;;;;;49.67;19.08;;;5.10;99.90;;;;;;5095742;28;20217;-81
2022/12/03 12:03:43;;;;;;;33.53;17.27;;;5.20;99.90;;;;;;5094421;28;20165;-80
2022/12/03 12:06:14;;;;;;;38.90;20.17;;;5.30;99.90;;;;;;5095068;28;20166;-80
2022/12/03 12:08:54;;;;;;;35.55;19.83;;;5.10;99.90;;;;;;5096261;28;20221;-80
2022/12/03 12:11:35;;;;;;;35.20;18.13;;;5.10;99.90;;;;;;5094912;28;20213;-80
2022/12/03 12:14:03;;;;;;;34.05;17.48;;;5.10;99.90;;;;;;5101163;28;20200;-81
2022/12/03 12:16:51;;;;;;;37.92;18.50;;;5.10;99.90;;;;;;5093670;28;20162;-81
2022/12/03 12:19:39;;;;;;;36.85;18.17;;;5.00;99.90;;;;;;5095214;28;20226;-81
2022/12/03 12:22:26;;;;;;;37.92;17.55;;;5.00;99.90;;;;;;5093866;28;20173;-81
2022/12/03 12:24:56;;;;;;;40.10;18.70;;;5.10;99.90;;;;;;5095011;28;20169;-81
2022/12/03 12:27:34;;;;;;;33.80;16.88;;;5.10;99.90;;;;;;5097613;28;20158;-81
2022/12/03 12:30:06;;;;;;;35.22;18.10;;;5.00;99.90;;;;;;5105508;28;20181;-80
2022/12/03 12:32:59;;;;;;;34.60;16.80;;;5.00;99.90;;;;;;5111324;28;20188;-80
2022/12/03 12:35:31;;;;;;;30.88;17.48;;;5.00;99.90;;;;;;5093686;28;20178;-79
2022/12/03 12:38:06;;;;;;;28.42;16.35;;;5.00;99.90;;;;;;5095028;28;20158;-79
2022/12/03 12:40:35;;;;;;;31.92;17.33;;;4.90;99.90;;;;;;5093452;28;20197;-79
2022/12/03 12:43:23;;;;;;;32.45;17.02;;;4.70;99.90;;;;;;5093656;28;20182;-80
2022/12/03 12:45:50;;;;;;;28.50;17.35;;;4.80;99.90;;;;;;5092565;28;20174;-79
2022/12/03 12:48:24;;;;;;;45.92;17.48;;;4.70;99.90;;;;;;5094720;28;20251;-80
2022/12/03 12:51:12;;;;;;;29.35;15.82;;;4.70;99.90;;;;;;5094756;28;20185;-80
2022/12/03 12:53:39;;;;;;;34.25;16.00;;;4.60;99.90;;;;;;5094361;28;20257;-79
2022/12/03 12:56:20;;;;;;;27.90;15.95;;;4.40;99.90;;;;;;5094854;28;20166;-80
2022/12/03 12:58:45;;;;;;;28.02;15.57;;;4.50;99.90;;;;;;5093014;28;20205;-80